sensor_id;sensor_type;location;lat;lon;timestamp;P1;durP1;ratioP1;P2;durP2;ratioP2
56363;SDS011;42261;52.094;4.326;2023-10-31T00:00:08;6.00;;;1.27;;
56363;SDS011;42261;52.094;4.326;2023-10-31T00:02:53;6.63;;;1.90;;
56363;SDS011;42261;52.094;4.326;2023-10-31T00:05:38;5.53;;;1.33;;
56363;SDS011;42261;52.094;4.326;2023-10-31T00:08:22;4.57;;;1.30;;
56363;SDS011;42261;52.094;4.326;2023-10-31T00:11:08;4.90;;;1.40;;
56363;SDS011;42261;52.094;4.326;2023-10-31T00:13:52;5.05;;;1.75;;
56363;SDS011;42261;52.094;4.326;2023-10-31T00:16:36;5.05;;;1.30;;
56363;SDS011;42261;52.094;4.326;2023-10-31T00:19:20;6.25;;;1.40;;
56363;SDS011;42261;52.094;4.326;2023-10-31T00:22:04;6.82;;;1.50;;
56363;SDS011;42261;52.094;4.326;2023-10-31T00:24:49;3.42;;;1.58;;
56363;SDS011;42261;52.094;4.326;2023-10-31T00:27:33;3.70;;;0.90;;
56363;SDS011;42261;52.094;4.326;2023-10-31T00:30:17;1.45;;;0.70;;
56363;SDS011;42261;52.094;4.326;2023-10-31T00:33:01;3.67;;;0.98;;
56363;SDS011;42261;52.094;4.326;2023-10-31T00:35:45;2.63;;;0.50;;
56363;SDS011;42261;52.094;4.326;2023-10-31T00:38:29;4.55;;;0.90;;
56363;SDS011;42261;52.094;4.326;2023-10-31T00:41:13;1.40;;;0.50;;
56363;SDS011;42261;52.094;4.326;2023-10-31T00:43:57;2.50;;;0.60;;
56363;SDS011;42261;52.094;4.326;2023-10-31T00:46:41;0.85;;;0.45;;
56363;SDS011;42261;52.094;4.326;2023-10-31T00:49:25;0.40;;;0.30;;
56363;SDS011;42261;52.094;4.326;2023-10-31T00:52:09;4.95;;;0.40;;
56363;SDS011;42261;52.094;4.326;2023-10-31T00:54:53;1.88;;;0.38;;
56363;SDS011;42261;52.094;4.326;2023-10-31T00:57:37;2.03;;;0.50;;
56363;SDS011;42261;52.094;4.326;2023-10-31T01:00:22;3.33;;;0.20;;
56363;SDS011;42261;52.094;4.326;2023-10-31T01:03:06;1.27;;;0.40;;
56363;SDS011;42261;52.094;4.326;2023-10-31T01:05:50;2.97;;;0.85;;
56363;SDS011;42261;52.094;4.326;2023-10-31T01:08:34;0.73;;;0.20;;
56363;SDS011;42261;52.094;4.326;2023-10-31T01:11:18;1.13;;;0.30;;
56363;SDS011;42261;52.094;4.326;2023-10-31T01:14:03;0.70;;;0.30;;
56363;SDS011;42261;52.094;4.326;2023-10-31T01:16:48;1.52;;;0.30;;
56363;SDS011;42261;52.094;4.326;2023-10-31T01:19:32;1.88;;;0.30;;
56363;SDS011;42261;52.094;4.326;2023-10-31T01:22:16;0.68;;;0.20;;
56363;SDS011;42261;52.094;4.326;2023-10-31T01:25:00;2.05;;;0.13;;
56363;SDS011;42261;52.094;4.326;2023-10-31T01:27:45;1.30;;;0.20;;
56363;SDS011;42261;52.094;4.326;2023-10-31T01:30:29;0.40;;;0.15;;
56363;SDS011;42261;52.094;4.326;2023-10-31T01:33:12;0.80;;;0.10;;
56363;SDS011;42261;52.094;4.326;2023-10-31T01:35:56;0.85;;;0.20;;
56363;SDS011;42261;52.094;4.326;2023-10-31T01:38:40;3.83;;;0.13;;
56363;SDS011;42261;52.094;4.326;2023-10-31T01:41:24;2.45;;;0.10;;
56363;SDS011;42261;52.094;4.326;2023-10-31T01:44:09;0.20;;;0.10;;
56363;SDS011;42261;52.094;4.326;2023-10-31T01:46:53;1.75;;;0.22;;
56363;SDS011;42261;52.094;4.326;2023-10-31T01:49:37;0.85;;;0.13;;
56363;SDS011;42261;52.094;4.326;2023-10-31T01:52:22;1.60;;;0.30;;
56363;SDS011;42261;52.094;4.326;2023-10-31T01:55:06;1.00;;;0.38;;
56363;SDS011;42261;52.094;4.326;2023-10-31T01:57:50;2.47;;;0.45;;
56363;SDS011;42261;52.094;4.326;2023-10-31T02:00:34;1.25;;;0.40;;
56363;SDS011;42261;52.094;4.326;2023-10-31T02:03:18;1.73;;;0.45;;
56363;SDS011;42261;52.094;4.326;2023-10-31T02:06:02;5.70;;;0.52;;
56363;SDS011;42261;52.094;4.326;2023-10-31T02:08:47;3.53;;;0.40;;
56363;SDS011;42261;52.094;4.326;2023-10-31T02:11:31;2.28;;;0.40;;
56363;SDS011;42261;52.094;4.326;2023-10-31T02:14:15;3.72;;;0.50;;
56363;SDS011;42261;52.094;4.326;2023-10-31T02:16:59;4.32;;;0.52;;
56363;SDS011;42261;52.094;4.326;2023-10-31T02:19:43;2.90;;;0.80;;
56363;SDS011;42261;52.094;4.326;2023-10-31T02:22:27;3.15;;;0.30;;
56363;SDS011;42261;52.094;4.326;2023-10-31T02:25:17;2.88;;;0.50;;
56363;SDS011;42261;52.094;4.326;2023-10-31T02:28:01;3.10;;;0.30;;
56363;SDS011;42261;52.094;4.326;2023-10-31T02:30:45;2.70;;;0.40;;
56363;SDS011;42261;52.094;4.326;2023-10-31T02:33:29;6.55;;;0.50;;
56363;SDS011;42261;52.094;4.326;2023-10-31T02:36:13;0.25;;;0.20;;
56363;SDS011;42261;52.094;4.326;2023-10-31T02:38:57;9.63;;;0.77;;
56363;SDS011;42261;52.094;4.326;2023-10-31T02:41:41;3.70;;;1.20;;
56363;SDS011;42261;52.094;4.326;2023-10-31T02:44:25;2.15;;;0.40;;
56363;SDS011;42261;52.094;4.326;2023-10-31T02:47:09;1.92;;;0.50;;
56363;SDS011;42261;52.094;4.326;2023-10-31T02:49:53;0.98;;;0.25;;
56363;SDS011;42261;52.094;4.326;2023-10-31T02:52:37;4.78;;;0.30;;
56363;SDS011;42261;52.094;4.326;2023-10-31T02:55:21;1.33;;;0.40;;
56363;SDS011;42261;52.094;4.326;2023-10-31T02:58:05;3.08;;;0.30;;
56363;SDS011;42261;52.094;4.326;2023-10-31T03:00:49;2.90;;;0.60;;
56363;SDS011;42261;52.094;4.326;2023-10-31T03:03:34;0.93;;;0.40;;
56363;SDS011;42261;52.094;4.326;2023-10-31T03:06:18;2.58;;;0.30;;
56363;SDS011;42261;52.094;4.326;2023-10-31T03:09:02;2.72;;;0.65;;
56363;SDS011;42261;52.094;4.326;2023-10-31T03:11:46;2.83;;;0.30;;
56363;SDS011;42261;52.094;4.326;2023-10-31T03:14:30;4.78;;;0.40;;
56363;SDS011;42261;52.094;4.326;2023-10-31T03:17:17;5.65;;;0.45;;
56363;SDS011;42261;52.094;4.326;2023-10-31T03:20:01;3.05;;;0.20;;
56363;SDS011;42261;52.094;4.326;2023-10-31T03:22:45;3.88;;;0.28;;
56363;SDS011;42261;52.094;4.326;2023-10-31T03:25:29;3.72;;;0.57;;
56363;SDS011;42261;52.094;4.326;2023-10-31T03:28:19;1.63;;;0.20;;
56363;SDS011;42261;52.094;4.326;2023-10-31T03:31:04;2.05;;;0.40;;
56363;SDS011;42261;52.094;4.326;2023-10-31T03:33:48;0.30;;;0.22;;
56363;SDS011;42261;52.094;4.326;2023-10-31T03:36:32;0.43;;;0.20;;
56363;SDS011;42261;52.094;4.326;2023-10-31T03:39:16;0.80;;;0.20;;
56363;SDS011;42261;52.094;4.326;2023-10-31T03:42:00;0.90;;;0.20;;
56363;SDS011;42261;52.094;4.326;2023-10-31T03:44:44;3.95;;;0.40;;
56363;SDS011;42261;52.094;4.326;2023-10-31T03:47:28;5.82;;;0.52;;
56363;SDS011;42261;52.094;4.326;2023-10-31T03:50:12;3.08;;;0.55;;
56363;SDS011;42261;52.094;4.326;2023-10-31T03:52:56;2.58;;;0.30;;
56363;SDS011;42261;52.094;4.326;2023-10-31T03:55:40;1.60;;;0.20;;
56363;SDS011;42261;52.094;4.326;2023-10-31T03:58:24;0.90;;;0.20;;
56363;SDS011;42261;52.094;4.326;2023-10-31T04:01:08;4.93;;;0.50;;
56363;SDS011;42261;52.094;4.326;2023-10-31T04:03:53;1.90;;;0.40;;
56363;SDS011;42261;52.094;4.326;2023-10-31T04:06:37;3.28;;;0.30;;
56363;SDS011;42261;52.094;4.326;2023-10-31T04:09:24;2.60;;;0.28;;
56363;SDS011;42261;52.094;4.326;2023-10-31T04:12:09;3.17;;;0.32;;
56363;SDS011;42261;52.094;4.326;2023-10-31T04:14:54;2.05;;;0.43;;
56363;SDS011;42261;52.094;4.326;2023-10-31T04:17:38;2.90;;;0.38;;
56363;SDS011;42261;52.094;4.326;2023-10-31T04:20:22;1.80;;;0.30;;
56363;SDS011;42261;52.094;4.326;2023-10-31T04:23:06;2.63;;;0.30;;
56363;SDS011;42261;52.094;4.326;2023-10-31T04:25:50;0.88;;;0.38;;
56363;SDS011;42261;52.094;4.326;2023-10-31T04:28:37;1.65;;;0.38;;
56363;SDS011;42261;52.094;4.326;2023-10-31T04:31:22;3.10;;;0.40;;
56363;SDS011;42261;52.094;4.326;2023-10-31T04:34:07;2.58;;;0.50;;
56363;SDS011;42261;52.094;4.326;2023-10-31T04:36:52;2.13;;;0.30;;
56363;SDS011;42261;52.094;4.326;2023-10-31T04:39:36;2.28;;;0.47;;
56363;SDS011;42261;52.094;4.326;2023-10-31T04:42:20;3.13;;;0.40;;
56363;SDS011;42261;52.094;4.326;2023-10-31T04:45:04;2.08;;;0.30;;
56363;SDS011;42261;52.094;4.326;2023-10-31T04:47:49;11.07;;;1.42;;
56363;SDS011;42261;52.094;4.326;2023-10-31T04:50:33;1.38;;;0.40;;
56363;SDS011;42261;52.094;4.326;2023-10-31T04:53:17;4.65;;;0.70;;
56363;SDS011;42261;52.094;4.326;2023-10-31T04:56:01;1.77;;;0.55;;
56363;SDS011;42261;52.094;4.326;2023-10-31T04:58:45;0.73;;;0.38;;
56363;SDS011;42261;52.094;4.326;2023-10-31T05:01:29;3.13;;;0.43;;
56363;SDS011;42261;52.094;4.326;2023-10-31T05:04:13;2.58;;;0.45;;
56363;SDS011;42261;52.094;4.326;2023-10-31T05:06:57;1.63;;;0.47;;
56363;SDS011;42261;52.094;4.326;2023-10-31T05:09:41;1.52;;;0.45;;
56363;SDS011;42261;52.094;4.326;2023-10-31T05:12:26;1.35;;;0.30;;
56363;SDS011;42261;52.094;4.326;2023-10-31T05:15:09;1.42;;;0.40;;
56363;SDS011;42261;52.094;4.326;2023-10-31T05:17:55;3.90;;;0.65;;
56363;SDS011;42261;52.094;4.326;2023-10-31T05:20:39;3.47;;;0.50;;
56363;SDS011;42261;52.094;4.326;2023-10-31T05:23:23;2.55;;;0.45;;
56363;SDS011;42261;52.094;4.326;2023-10-31T05:26:07;4.30;;;0.90;;
56363;SDS011;42261;52.094;4.326;2023-10-31T05:28:51;2.70;;;0.50;;
56363;SDS011;42261;52.094;4.326;2023-10-31T05:31:35;2.47;;;0.60;;
56363;SDS011;42261;52.094;4.326;2023-10-31T05:34:19;3.70;;;1.00;;
56363;SDS011;42261;52.094;4.326;2023-10-31T05:37:03;4.22;;;0.60;;
56363;SDS011;42261;52.094;4.326;2023-10-31T05:39:49;5.57;;;0.88;;
56363;SDS011;42261;52.094;4.326;2023-10-31T05:42:33;2.15;;;0.60;;
56363;SDS011;42261;52.094;4.326;2023-10-31T05:45:17;1.85;;;0.60;;
56363;SDS011;42261;52.094;4.326;2023-10-31T05:48:03;2.55;;;2.10;;
56363;SDS011;42261;52.094;4.326;2023-10-31T05:50:48;3.47;;;0.52;;
56363;SDS011;42261;52.094;4.326;2023-10-31T05:53:32;6.60;;;0.80;;
56363;SDS011;42261;52.094;4.326;2023-10-31T05:56:17;2.03;;;0.52;;
56363;SDS011;42261;52.094;4.326;2023-10-31T05:59:01;3.95;;;0.60;;
56363;SDS011;42261;52.094;4.326;2023-10-31T06:01:45;4.68;;;0.88;;
56363;SDS011;42261;52.094;4.326;2023-10-31T06:04:30;4.97;;;0.82;;
56363;SDS011;42261;52.094;4.326;2023-10-31T06:07:14;3.03;;;0.50;;
56363;SDS011;42261;52.094;4.326;2023-10-31T06:09:58;2.03;;;0.70;;
56363;SDS011;42261;52.094;4.326;2023-10-31T06:12:42;4.03;;;0.57;;
56363;SDS011;42261;52.094;4.326;2023-10-31T06:15:27;2.15;;;0.50;;
56363;SDS011;42261;52.094;4.326;2023-10-31T06:18:11;7.10;;;0.73;;
56363;SDS011;42261;52.094;4.326;2023-10-31T06:20:56;4.25;;;0.60;;
56363;SDS011;42261;52.094;4.326;2023-10-31T06:23:41;2.45;;;0.47;;
56363;SDS011;42261;52.094;4.326;2023-10-31T06:26:26;3.63;;;0.73;;
56363;SDS011;42261;52.094;4.326;2023-10-31T06:29:10;2.40;;;0.50;;
56363;SDS011;42261;52.094;4.326;2023-10-31T06:31:54;1.65;;;0.80;;
56363;SDS011;42261;52.094;4.326;2023-10-31T06:34:44;6.10;;;0.85;;
56363;SDS011;42261;52.094;4.326;2023-10-31T06:37:32;8.30;;;1.10;;
56363;SDS011;42261;52.094;4.326;2023-10-31T06:40:15;2.90;;;1.25;;
56363;SDS011;42261;52.094;4.326;2023-10-31T06:43:01;7.30;;;0.60;;
56363;SDS011;42261;52.094;4.326;2023-10-31T06:45:45;3.67;;;0.60;;
56363;SDS011;42261;52.094;4.326;2023-10-31T06:48:31;2.55;;;0.80;;
56363;SDS011;42261;52.094;4.326;2023-10-31T06:51:15;3.55;;;0.70;;
56363;SDS011;42261;52.094;4.326;2023-10-31T06:53:59;4.10;;;0.80;;
56363;SDS011;42261;52.094;4.326;2023-10-31T06:56:42;1.90;;;0.80;;
56363;SDS011;42261;52.094;4.326;2023-10-31T07:07:54;7.78;;;1.20;;
56363;SDS011;42261;52.094;4.326;2023-10-31T07:10:39;4.57;;;0.80;;
56363;SDS011;42261;52.094;4.326;2023-10-31T07:13:23;5.57;;;0.95;;
56363;SDS011;42261;52.094;4.326;2023-10-31T07:16:07;3.08;;;0.95;;
56363;SDS011;42261;52.094;4.326;2023-10-31T07:18:51;2.13;;;0.90;;
56363;SDS011;42261;52.094;4.326;2023-10-31T07:21:35;4.57;;;1.00;;
56363;SDS011;42261;52.094;4.326;2023-10-31T07:24:19;5.40;;;1.23;;
56363;SDS011;42261;52.094;4.326;2023-10-31T07:27:04;5.22;;;1.05;;
56363;SDS011;42261;52.094;4.326;2023-10-31T07:29:48;3.65;;;1.20;;
56363;SDS011;42261;52.094;4.326;2023-10-31T07:32:33;3.42;;;0.90;;
56363;SDS011;42261;52.094;4.326;2023-10-31T07:35:17;4.47;;;1.20;;
56363;SDS011;42261;52.094;4.326;2023-10-31T07:38:03;4.72;;;1.10;;
56363;SDS011;42261;52.094;4.326;2023-10-31T07:40:47;6.93;;;1.20;;
56363;SDS011;42261;52.094;4.326;2023-10-31T07:43:32;5.05;;;1.30;;
56363;SDS011;42261;52.094;4.326;2023-10-31T07:46:16;6.43;;;1.70;;
56363;SDS011;42261;52.094;4.326;2023-10-31T07:49:00;3.03;;;1.15;;
56363;SDS011;42261;52.094;4.326;2023-10-31T07:51:45;6.20;;;1.40;;
56363;SDS011;42261;52.094;4.326;2023-10-31T07:54:32;3.00;;;1.10;;
56363;SDS011;42261;52.094;4.326;2023-10-31T07:57:16;5.40;;;1.33;;
56363;SDS011;42261;52.094;4.326;2023-10-31T08:00:00;5.43;;;1.60;;
56363;SDS011;42261;52.094;4.326;2023-10-31T08:02:44;8.48;;;1.80;;
56363;SDS011;42261;52.094;4.326;2023-10-31T08:05:28;10.90;;;1.30;;
56363;SDS011;42261;52.094;4.326;2023-10-31T08:08:12;4.32;;;1.40;;
56363;SDS011;42261;52.094;4.326;2023-10-31T08:10:56;4.60;;;1.30;;
56363;SDS011;42261;52.094;4.326;2023-10-31T08:13:42;4.60;;;1.42;;
56363;SDS011;42261;52.094;4.326;2023-10-31T08:16:26;6.30;;;1.65;;
56363;SDS011;42261;52.094;4.326;2023-10-31T08:19:11;8.63;;;1.60;;
56363;SDS011;42261;52.094;4.326;2023-10-31T08:21:56;5.20;;;1.83;;
56363;SDS011;42261;52.094;4.326;2023-10-31T08:24:40;4.32;;;1.77;;
56363;SDS011;42261;52.094;4.326;2023-10-31T08:27:24;3.30;;;1.83;;
56363;SDS011;42261;52.094;4.326;2023-10-31T08:30:08;7.53;;;1.67;;
56363;SDS011;42261;52.094;4.326;2023-10-31T08:32:53;7.45;;;1.92;;
56363;SDS011;42261;52.094;4.326;2023-10-31T08:35:38;8.52;;;2.10;;
56363;SDS011;42261;52.094;4.326;2023-10-31T08:38:22;9.63;;;2.13;;
56363;SDS011;42261;52.094;4.326;2023-10-31T08:41:06;3.42;;;1.58;;
56363;SDS011;42261;52.094;4.326;2023-10-31T08:43:50;4.13;;;2.30;;
56363;SDS011;42261;52.094;4.326;2023-10-31T08:46:34;8.98;;;2.47;;
56363;SDS011;42261;52.094;4.326;2023-10-31T08:49:18;5.18;;;2.50;;
56363;SDS011;42261;52.094;4.326;2023-10-31T08:52:02;22.77;;;7.40;;
56363;SDS011;42261;52.094;4.326;2023-10-31T08:54:48;8.48;;;2.65;;
56363;SDS011;42261;52.094;4.326;2023-10-31T08:57:32;5.25;;;2.15;;
56363;SDS011;42261;52.094;4.326;2023-10-31T09:00:18;5.75;;;2.10;;
56363;SDS011;42261;52.094;4.326;2023-10-31T09:03:03;5.07;;;2.50;;
56363;SDS011;42261;52.094;4.326;2023-10-31T09:05:47;7.43;;;2.38;;
56363;SDS011;42261;52.094;4.326;2023-10-31T09:08:31;7.85;;;2.63;;
56363;SDS011;42261;52.094;4.326;2023-10-31T09:11:15;7.15;;;2.95;;
56363;SDS011;42261;52.094;4.326;2023-10-31T09:13:59;12.50;;;4.75;;
56363;SDS011;42261;52.094;4.326;2023-10-31T09:16:43;8.13;;;3.00;;
56363;SDS011;42261;52.094;4.326;2023-10-31T09:19:27;9.90;;;2.47;;
56363;SDS011;42261;52.094;4.326;2023-10-31T09:22:12;6.07;;;2.15;;
56363;SDS011;42261;52.094;4.326;2023-10-31T09:24:56;7.63;;;1.85;;
56363;SDS011;42261;52.094;4.326;2023-10-31T09:27:40;10.52;;;2.25;;
56363;SDS011;42261;52.094;4.326;2023-10-31T09:30:24;5.72;;;2.17;;
56363;SDS011;42261;52.094;4.326;2023-10-31T09:33:09;6.55;;;3.03;;
56363;SDS011;42261;52.094;4.326;2023-10-31T09:35:53;7.28;;;2.90;;
56363;SDS011;42261;52.094;4.326;2023-10-31T09:38:37;7.15;;;2.17;;
56363;SDS011;42261;52.094;4.326;2023-10-31T09:41:21;3.95;;;1.90;;
56363;SDS011;42261;52.094;4.326;2023-10-31T09:44:05;9.10;;;2.22;;
56363;SDS011;42261;52.094;4.326;2023-10-31T09:46:51;6.70;;;1.70;;
56363;SDS011;42261;52.094;4.326;2023-10-31T09:49:35;7.50;;;2.15;;
56363;SDS011;42261;52.094;4.326;2023-10-31T09:52:20;10.82;;;2.03;;
56363;SDS011;42261;52.094;4.326;2023-10-31T09:55:05;9.98;;;1.80;;
56363;SDS011;42261;52.094;4.326;2023-10-31T09:57:49;2.88;;;1.40;;
56363;SDS011;42261;52.094;4.326;2023-10-31T10:00:35;4.20;;;1.42;;
56363;SDS011;42261;52.094;4.326;2023-10-31T10:03:21;3.42;;;0.75;;
56363;SDS011;42261;52.094;4.326;2023-10-31T10:06:05;3.30;;;1.00;;
56363;SDS011;42261;52.094;4.326;2023-10-31T10:08:50;5.03;;;0.88;;
56363;SDS011;42261;52.094;4.326;2023-10-31T10:11:34;5.68;;;0.98;;
56363;SDS011;42261;52.094;4.326;2023-10-31T10:14:18;2.63;;;0.82;;
56363;SDS011;42261;52.094;4.326;2023-10-31T10:17:02;6.32;;;0.93;;
56363;SDS011;42261;52.094;4.326;2023-10-31T10:20:10;1.85;;;0.80;;
56363;SDS011;42261;52.094;4.326;2023-10-31T10:22:54;3.47;;;1.10;;
56363;SDS011;42261;52.094;4.326;2023-10-31T10:25:48;6.95;;;0.80;;
56363;SDS011;42261;52.094;4.326;2023-10-31T10:28:33;4.95;;;0.95;;
56363;SDS011;42261;52.094;4.326;2023-10-31T10:31:17;5.55;;;0.70;;
56363;SDS011;42261;52.094;4.326;2023-10-31T10:34:01;5.78;;;0.90;;
56363;SDS011;42261;52.094;4.326;2023-10-31T10:36:48;6.55;;;1.10;;
56363;SDS011;42261;52.094;4.326;2023-10-31T10:39:33;3.45;;;1.02;;
56363;SDS011;42261;52.094;4.326;2023-10-31T10:42:18;3.63;;;1.10;;
56363;SDS011;42261;52.094;4.326;2023-10-31T10:45:04;4.93;;;1.05;;
56363;SDS011;42261;52.094;4.326;2023-10-31T10:47:49;6.53;;;1.55;;
56363;SDS011;42261;52.094;4.326;2023-10-31T10:50:34;6.65;;;1.40;;
56363;SDS011;42261;52.094;4.326;2023-10-31T10:53:22;7.22;;;1.50;;
56363;SDS011;42261;52.094;4.326;2023-10-31T10:56:11;8.52;;;1.40;;
56363;SDS011;42261;52.094;4.326;2023-10-31T10:59:06;11.52;;;2.40;;
56363;SDS011;42261;52.094;4.326;2023-10-31T11:01:51;5.20;;;1.40;;
56363;SDS011;42261;52.094;4.326;2023-10-31T11:04:36;6.50;;;2.03;;
56363;SDS011;42261;52.094;4.326;2023-10-31T11:07:21;11.65;;;1.45;;
56363;SDS011;42261;52.094;4.326;2023-10-31T11:10:06;8.82;;;2.10;;
56363;SDS011;42261;52.094;4.326;2023-10-31T11:12:51;6.93;;;1.38;;
56363;SDS011;42261;52.094;4.326;2023-10-31T11:15:37;10.20;;;2.20;;
56363;SDS011;42261;52.094;4.326;2023-10-31T11:18:22;7.00;;;1.67;;
56363;SDS011;42261;52.094;4.326;2023-10-31T11:21:07;9.75;;;2.05;;
56363;SDS011;42261;52.094;4.326;2023-10-31T11:23:58;8.18;;;1.77;;
56363;SDS011;42261;52.094;4.326;2023-10-31T11:26:50;5.95;;;1.85;;
56363;SDS011;42261;52.094;4.326;2023-10-31T11:29:35;7.68;;;2.95;;
56363;SDS011;42261;52.094;4.326;2023-10-31T11:32:19;11.48;;;3.58;;
56363;SDS011;42261;52.094;4.326;2023-10-31T11:35:06;16.25;;;4.32;;
56363;SDS011;42261;52.094;4.326;2023-10-31T11:38:11;10.02;;;3.55;;
56363;SDS011;42261;52.094;4.326;2023-10-31T11:40:59;8.73;;;3.97;;
56363;SDS011;42261;52.094;4.326;2023-10-31T11:46:28;7.28;;;3.67;;
56363;SDS011;42261;52.094;4.326;2023-10-31T11:49:12;8.77;;;3.95;;
56363;SDS011;42261;52.094;4.326;2023-10-31T11:51:56;11.50;;;4.00;;
56363;SDS011;42261;52.094;4.326;2023-10-31T11:54:41;9.88;;;4.03;;
56363;SDS011;42261;52.094;4.326;2023-10-31T11:57:29;6.35;;;4.15;;
56363;SDS011;42261;52.094;4.326;2023-10-31T12:00:23;9.70;;;4.43;;
56363;SDS011;42261;52.094;4.326;2023-10-31T12:03:08;14.85;;;4.82;;
56363;SDS011;42261;52.094;4.326;2023-10-31T12:05:55;11.02;;;3.80;;
56363;SDS011;42261;52.094;4.326;2023-10-31T12:08:41;12.02;;;4.45;;
56363;SDS011;42261;52.094;4.326;2023-10-31T12:11:26;8.30;;;5.28;;
56363;SDS011;42261;52.094;4.326;2023-10-31T12:14:10;10.52;;;4.90;;
56363;SDS011;42261;52.094;4.326;2023-10-31T12:16:54;10.52;;;6.05;;
56363;SDS011;42261;52.094;4.326;2023-10-31T12:19:39;12.80;;;6.90;;
56363;SDS011;42261;52.094;4.326;2023-10-31T12:22:23;11.18;;;6.80;;
56363;SDS011;42261;52.094;4.326;2023-10-31T12:25:07;15.23;;;8.15;;
56363;SDS011;42261;52.094;4.326;2023-10-31T12:27:52;15.52;;;9.23;;
56363;SDS011;42261;52.094;4.326;2023-10-31T12:30:36;16.88;;;9.60;;
56363;SDS011;42261;52.094;4.326;2023-10-31T12:33:28;23.52;;;11.82;;
56363;SDS011;42261;52.094;4.326;2023-10-31T12:36:12;18.98;;;10.40;;
56363;SDS011;42261;52.094;4.326;2023-10-31T12:38:56;23.35;;;11.27;;
56363;SDS011;42261;52.094;4.326;2023-10-31T12:41:40;22.48;;;10.25;;
56363;SDS011;42261;52.094;4.326;2023-10-31T12:44:25;20.48;;;10.27;;
56363;SDS011;42261;52.094;4.326;2023-10-31T12:47:11;17.95;;;8.93;;
56363;SDS011;42261;52.094;4.326;2023-10-31T12:50:14;18.27;;;9.52;;
56363;SDS011;42261;52.094;4.326;2023-10-31T12:52:59;21.30;;;11.25;;
56363;SDS011;42261;52.094;4.326;2023-10-31T12:55:45;19.60;;;10.50;;
56363;SDS011;42261;52.094;4.326;2023-10-31T12:58:29;20.58;;;10.68;;
56363;SDS011;42261;52.094;4.326;2023-10-31T13:01:13;18.13;;;10.38;;
56363;SDS011;42261;52.094;4.326;2023-10-31T13:03:57;18.58;;;10.68;;
56363;SDS011;42261;52.094;4.326;2023-10-31T13:06:41;17.42;;;10.15;;
56363;SDS011;42261;52.094;4.326;2023-10-31T13:09:38;19.58;;;11.48;;
56363;SDS011;42261;52.094;4.326;2023-10-31T13:12:23;21.52;;;11.52;;
56363;SDS011;42261;52.094;4.326;2023-10-31T13:15:10;21.95;;;11.25;;
56363;SDS011;42261;52.094;4.326;2023-10-31T13:17:54;21.48;;;11.80;;
56363;SDS011;42261;52.094;4.326;2023-10-31T13:20:38;20.58;;;10.27;;
56363;SDS011;42261;52.094;4.326;2023-10-31T13:23:22;19.83;;;11.00;;
56363;SDS011;42261;52.094;4.326;2023-10-31T13:26:07;21.88;;;11.15;;
56363;SDS011;42261;52.094;4.326;2023-10-31T13:28:50;20.42;;;11.93;;
56363;SDS011;42261;52.094;4.326;2023-10-31T13:31:34;18.55;;;11.52;;
56363;SDS011;42261;52.094;4.326;2023-10-31T13:34:18;21.85;;;11.88;;
56363;SDS011;42261;52.094;4.326;2023-10-31T13:37:03;25.73;;;13.27;;
56363;SDS011;42261;52.094;4.326;2023-10-31T13:39:46;28.27;;;13.50;;
56363;SDS011;42261;52.094;4.326;2023-10-31T13:42:31;25.00;;;12.88;;
56363;SDS011;42261;52.094;4.326;2023-10-31T13:45:14;23.42;;;13.50;;
56363;SDS011;42261;52.094;4.326;2023-10-31T13:48:00;25.27;;;13.00;;
56363;SDS011;42261;52.094;4.326;2023-10-31T13:50:45;24.52;;;13.18;;
56363;SDS011;42261;52.094;4.326;2023-10-31T13:53:30;22.13;;;12.52;;
56363;SDS011;42261;52.094;4.326;2023-10-31T13:56:14;19.27;;;11.52;;
56363;SDS011;42261;52.094;4.326;2023-10-31T13:58:57;24.75;;;12.77;;
56363;SDS011;42261;52.094;4.326;2023-10-31T14:01:41;22.20;;;12.05;;
56363;SDS011;42261;52.094;4.326;2023-10-31T14:04:25;19.10;;;11.75;;
56363;SDS011;42261;52.094;4.326;2023-10-31T14:07:10;21.98;;;11.80;;
56363;SDS011;42261;52.094;4.326;2023-10-31T14:09:55;21.50;;;11.13;;
56363;SDS011;42261;52.094;4.326;2023-10-31T14:12:40;23.52;;;11.30;;
56363;SDS011;42261;52.094;4.326;2023-10-31T14:15:24;17.63;;;9.10;;
56363;SDS011;42261;52.094;4.326;2023-10-31T14:18:08;17.27;;;9.18;;
56363;SDS011;42261;52.094;4.326;2023-10-31T14:20:52;14.80;;;7.88;;
56363;SDS011;42261;52.094;4.326;2023-10-31T14:23:36;11.15;;;6.05;;
56363;SDS011;42261;52.094;4.326;2023-10-31T14:26:20;8.90;;;4.85;;
56363;SDS011;42261;52.094;4.326;2023-10-31T14:29:04;9.23;;;4.90;;
56363;SDS011;42261;52.094;4.326;2023-10-31T14:31:48;9.73;;;4.95;;
56363;SDS011;42261;52.094;4.326;2023-10-31T14:34:32;9.32;;;4.28;;
56363;SDS011;42261;52.094;4.326;2023-10-31T14:37:16;11.50;;;4.85;;
56363;SDS011;42261;52.094;4.326;2023-10-31T14:40:00;10.07;;;5.00;;
56363;SDS011;42261;52.094;4.326;2023-10-31T14:42:46;10.15;;;5.57;;
56363;SDS011;42261;52.094;4.326;2023-10-31T14:45:30;10.95;;;5.75;;
56363;SDS011;42261;52.094;4.326;2023-10-31T14:48:14;7.97;;;4.65;;
56363;SDS011;42261;52.094;4.326;2023-10-31T14:50:58;9.48;;;5.13;;
56363;SDS011;42261;52.094;4.326;2023-10-31T14:53:42;10.02;;;4.35;;
56363;SDS011;42261;52.094;4.326;2023-10-31T14:56:27;8.35;;;3.78;;
56363;SDS011;42261;52.094;4.326;2023-10-31T14:59:13;7.30;;;4.38;;
56363;SDS011;42261;52.094;4.326;2023-10-31T15:01:57;8.27;;;4.82;;
56363;SDS011;42261;52.094;4.326;2023-10-31T15:04:41;9.40;;;4.55;;
56363;SDS011;42261;52.094;4.326;2023-10-31T15:07:25;9.88;;;5.20;;
56363;SDS011;42261;52.094;4.326;2023-10-31T15:10:09;8.75;;;4.68;;
56363;SDS011;42261;52.094;4.326;2023-10-31T15:12:54;9.05;;;5.05;;
56363;SDS011;42261;52.094;4.326;2023-10-31T15:15:38;10.65;;;5.63;;
56363;SDS011;42261;52.094;4.326;2023-10-31T15:18:22;9.80;;;5.72;;
56363;SDS011;42261;52.094;4.326;2023-10-31T15:21:06;11.45;;;5.65;;
56363;SDS011;42261;52.094;4.326;2023-10-31T15:23:50;9.60;;;5.68;;
56363;SDS011;42261;52.094;4.326;2023-10-31T15:26:35;8.50;;;5.32;;
56363;SDS011;42261;52.094;4.326;2023-10-31T15:29:22;12.43;;;5.60;;
56363;SDS011;42261;52.094;4.326;2023-10-31T15:32:07;9.18;;;5.25;;
56363;SDS011;42261;52.094;4.326;2023-10-31T15:34:50;10.07;;;5.07;;
56363;SDS011;42261;52.094;4.326;2023-10-31T15:37:34;10.32;;;5.78;;
56363;SDS011;42261;52.094;4.326;2023-10-31T15:40:18;9.52;;;5.68;;
56363;SDS011;42261;52.094;4.326;2023-10-31T15:43:03;11.63;;;5.30;;
56363;SDS011;42261;52.094;4.326;2023-10-31T15:45:47;8.80;;;5.07;;
56363;SDS011;42261;52.094;4.326;2023-10-31T15:48:31;7.45;;;5.05;;
56363;SDS011;42261;52.094;4.326;2023-10-31T15:51:17;12.07;;;5.40;;
56363;SDS011;42261;52.094;4.326;2023-10-31T15:54:01;9.90;;;5.03;;
56363;SDS011;42261;52.094;4.326;2023-10-31T15:56:46;8.85;;;5.28;;
56363;SDS011;42261;52.094;4.326;2023-10-31T15:59:30;9.73;;;5.07;;
56363;SDS011;42261;52.094;4.326;2023-10-31T16:02:14;9.35;;;4.95;;
56363;SDS011;42261;52.094;4.326;2023-10-31T16:05:00;11.73;;;6.15;;
56363;SDS011;42261;52.094;4.326;2023-10-31T16:07:44;11.40;;;6.00;;
56363;SDS011;42261;52.094;4.326;2023-10-31T16:10:28;9.95;;;5.15;;
56363;SDS011;42261;52.094;4.326;2023-10-31T16:13:12;11.88;;;6.22;;
56363;SDS011;42261;52.094;4.326;2023-10-31T16:15:56;10.15;;;5.82;;
56363;SDS011;42261;52.094;4.326;2023-10-31T16:18:40;9.95;;;6.32;;
56363;SDS011;42261;52.094;4.326;2023-10-31T16:21:24;12.77;;;6.30;;
56363;SDS011;42261;52.094;4.326;2023-10-31T16:24:08;12.45;;;6.53;;
56363;SDS011;42261;52.094;4.326;2023-10-31T16:26:54;12.43;;;6.75;;
56363;SDS011;42261;52.094;4.326;2023-10-31T16:29:38;11.05;;;6.60;;
56363;SDS011;42261;52.094;4.326;2023-10-31T16:32:22;13.70;;;7.10;;
56363;SDS011;42261;52.094;4.326;2023-10-31T16:35:06;15.20;;;6.43;;
56363;SDS011;42261;52.094;4.326;2023-10-31T16:37:51;11.85;;;6.20;;